Trumbauersville, Pennsylvania
Current Conditions -  °F | °C
As of 1:55 PM on Thursday 23 Oct 2014 (Local Time) from KUKT Reporting Station
Overcast Overcast  
Wind Chill: 50°   Ceiling: 2300
Heat Index: 50°   Visibility: 5mi
Dew Point: 45°   Wind: 13mph
Humidity: 82%   Direction: 330°NNW
Pressure: 29.8"   Gusts: 21mph
Location:  40.41°N, 75.38°W
Report Text: KUKT 231755Z AUTO 33011G18KT 5SM OVC023 10/07 A2980 RMK AO1
Loading
Personal Weather Stations






























Interactive Weather Map
Tropical Storm Tracking
New forecast layout! Learn more

10-Day Weather Forecast

Advertisements
Track Severe Weather on mobile